Time;durP1;ratioP1;P1;durP2;ratioP2;P2;SDS_P1;SDS_P2;PMS_P1;PMS_P2;Temp;Humidity;BMP_temperature;BMP_pressure;BME280_temperature;BME280_humidity;BME280_pressure;Samples;Min_cycle;Max_cycle;Signal;HPM_P1;HPM_P2
2023/04/30 00:02:03;;;;;;;17.23;7.18;;;6.60;99.90;;;;;;5072948;28;20047;-69
2023/04/30 00:04:29;;;;;;;18.52;7.50;;;6.60;99.90;;;;;;4991416;28;216959;-69
2023/04/30 00:06:55;;;;;;;15.50;6.90;;;6.50;99.90;;;;;;5045639;28;20439;-69
2023/04/30 00:09:21;;;;;;;17.73;6.93;;;6.50;99.90;;;;;;5008601;28;210050;-69
2023/04/30 00:11:47;;;;;;;16.92;6.95;;;6.40;99.90;;;;;;5061739;28;20084;-69
2023/04/30 00:14:13;;;;;;;17.35;7.05;;;6.40;99.90;;;;;;4998500;28;212525;-69
2023/04/30 00:16:40;;;;;;;16.92;6.53;;;6.40;99.90;;;;;;5053782;28;20055;-69
2023/04/30 00:19:07;;;;;;;17.27;6.82;;;6.30;99.90;;;;;;4993919;28;209700;-69
2023/04/30 00:21:33;;;;;;;16.17;6.75;;;6.30;99.90;;;;;;5060866;28;20049;-69
2023/04/30 00:23:59;;;;;;;17.08;6.82;;;6.30;99.90;;;;;;4990464;28;220715;-68
2023/04/30 00:26:25;;;;;;;14.90;6.50;;;6.30;99.90;;;;;;5052616;28;20063;-69
2023/04/30 00:28:52;;;;;;;16.08;6.57;;;6.20;99.90;;;;;;5007286;28;211895;-70
2023/04/30 00:31:18;;;;;;;16.85;6.75;;;6.20;99.90;;;;;;5046352;28;20385;-70
2023/04/30 00:33:44;;;;;;;13.82;5.75;;;6.10;99.90;;;;;;5003606;28;207696;-69
2023/04/30 00:36:10;;;;;;;20.35;6.72;;;6.10;99.90;;;;;;5052423;28;20056;-69
2023/04/30 00:38:36;;;;;;;14.75;6.45;;;6.10;99.90;;;;;;5001194;28;207876;-69
2023/04/30 00:41:03;;;;;;;18.15;6.60;;;6.10;99.90;;;;;;5087369;28;20066;-70
2023/04/30 00:43:29;;;;;;;12.40;5.80;;;6.10;99.90;;;;;;5012591;28;228011;-70
2023/04/30 00:45:55;;;;;;;16.05;7.03;;;6.00;99.90;;;;;;5061743;28;20052;-70
2023/04/30 00:48:21;;;;;;;17.48;6.45;;;6.00;99.90;;;;;;5004520;28;207379;-69
2023/04/30 00:50:47;;;;;;;13.20;5.75;;;6.00;99.90;;;;;;5064209;28;20051;-68
2023/04/30 00:53:14;;;;;;;13.05;6.05;;;6.00;99.90;;;;;;5015606;27;210692;-69
2023/04/30 00:55:42;;;;;;;17.42;6.63;;;6.00;99.90;;;;;;5095969;28;20061;-68
2023/04/30 00:58:08;;;;;;;16.02;5.95;;;5.90;99.90;;;;;;5035271;28;209668;-69
2023/04/30 01:00:35;;;;;;;17.25;6.75;;;5.90;99.90;;;;;;5041742;28;101566;-69
2023/04/30 01:03:01;;;;;;;14.27;6.65;;;5.90;99.90;;;;;;5072647;28;20060;-68
2023/04/30 01:05:27;;;;;;;16.77;7.10;;;5.90;99.90;;;;;;4978457;28;267349;-68
2023/04/30 01:07:55;;;;;;;16.50;6.80;;;5.80;99.90;;;;;;5062687;28;20063;-70
2023/04/30 01:10:27;;;;;;;16.55;7.63;;;5.80;99.90;;;;;;5003495;28;209694;-70
2023/04/30 01:13:11;;;;;;;16.27;8.25;;;5.70;99.90;;;;;;5057760;28;20048;-68
2023/04/30 01:15:46;;;;;;;17.02;7.70;;;5.70;99.90;;;;;;5015922;28;78487;-70
2023/04/30 01:18:20;;;;;;;18.35;7.32;;;5.70;99.90;;;;;;5023165;28;209867;-69
2023/04/30 01:20:58;;;;;;;15.65;7.40;;;5.70;99.90;;;;;;5039115;28;20532;-67
2023/04/30 01:23:53;;;;;;;16.40;7.20;;;5.60;99.90;;;;;;5003279;28;205116;-68
2023/04/30 01:26:47;;;;;;;17.83;7.45;;;5.60;99.90;;;;;;5063702;28;20051;-67
2023/04/30 01:29:17;;;;;;;18.13;7.45;;;5.50;99.90;;;;;;5011625;28;208315;-69
2023/04/30 01:31:43;;;;;;;17.55;8.00;;;5.50;99.90;;;;;;5079214;28;20048;-69
2023/04/30 01:34:10;;;;;;;19.48;8.32;;;5.50;99.90;;;;;;5016479;28;207803;-69
2023/04/30 01:36:53;;;;;;;18.75;7.82;;;5.50;99.90;;;;;;5074775;28;20434;-69
2023/04/30 01:39:29;;;;;;;19.95;9.93;;;5.50;99.90;;;;;;5001305;28;205832;-68
2023/04/30 01:42:18;;;;;;;18.33;8.60;;;5.40;99.90;;;;;;5062966;28;20518;-70
2023/04/30 01:45:03;;;;;;;21.65;8.50;;;5.30;99.90;;;;;;4976184;28;207200;-70
2023/04/30 01:47:39;;;;;;;19.73;8.98;;;5.30;99.90;;;;;;5054851;28;20056;-69
2023/04/30 01:50:29;;;;;;;19.08;7.45;;;5.30;99.90;;;;;;4998938;28;206990;-68
2023/04/30 01:52:59;;;;;;;17.95;9.05;;;5.30;99.90;;;;;;5049313;28;20045;-68
2023/04/30 01:55:50;;;;;;;20.70;8.80;;;5.20;99.90;;;;;;5022479;28;210989;-68
2023/04/30 01:58:18;;;;;;;26.25;9.15;;;5.20;99.90;;;;;;5000880;28;213275;-68
2023/04/30 02:00:44;;;;;;;18.63;8.52;;;5.10;99.90;;;;;;5068789;28;20473;-69
2023/04/30 02:03:10;;;;;;;20.17;7.67;;;5.10;99.90;;;;;;5016870;28;208149;-68
2023/04/30 02:05:36;;;;;;;18.38;7.20;;;5.00;99.90;;;;;;5055410;28;20780;-68
2023/04/30 02:08:02;;;;;;;16.94;7.66;;;5.00;99.90;;;;;;5071801;28;207482;-68
2023/04/30 02:10:29;;;;;;;16.92;7.03;;;4.90;99.90;;;;;;5001332;28;222436;-69
2023/04/30 02:12:55;;;;;;;15.15;7.47;;;4.90;99.90;;;;;;5071922;28;20047;-69
2023/04/30 02:15:21;;;;;;;21.25;8.02;;;4.90;99.90;;;;;;5026415;28;207148;-68
2023/04/30 02:17:47;;;;;;;18.65;8.68;;;4.80;99.90;;;;;;5074584;28;20040;-68
2023/04/30 02:20:13;;;;;;;17.52;7.97;;;4.90;99.90;;;;;;5009629;28;212273;-70
2023/04/30 02:22:39;;;;;;;14.00;7.00;;;4.80;99.90;;;;;;5079575;28;20052;-68
2023/04/30 02:25:06;;;;;;;17.63;7.68;;;4.90;99.90;;;;;;5027174;28;210661;-68
2023/04/30 02:27:33;;;;;;;18.38;7.85;;;4.80;99.90;;;;;;5075890;28;20052;-68
2023/04/30 02:29:59;;;;;;;17.17;8.02;;;4.90;99.90;;;;;;5000765;28;207883;-68
2023/04/30 02:32:25;;;;;;;17.40;8.10;;;4.80;99.90;;;;;;5057379;28;20060;-68
2023/04/30 02:34:51;;;;;;;15.73;7.35;;;4.80;99.90;;;;;;5008027;28;208159;-69
2023/04/30 02:37:17;;;;;;;16.80;7.18;;;4.80;99.90;;;;;;5053165;28;20407;-68
2023/04/30 02:39:43;;;;;;;16.35;7.93;;;4.90;99.90;;;;;;5003012;28;206849;-68
2023/04/30 02:42:10;;;;;;;19.30;8.50;;;4.90;99.90;;;;;;5070187;28;20052;-69
2023/04/30 02:44:36;;;;;;;18.08;8.00;;;5.00;99.90;;;;;;5007845;28;205095;-68
2023/04/30 02:47:02;;;;;;;16.52;7.25;;;5.10;99.90;;;;;;5062544;28;20052;-70
2023/04/30 02:49:28;;;;;;;21.63;8.30;;;5.10;99.90;;;;;;4996361;28;210807;-69
2023/04/30 02:51:54;;;;;;;17.50;7.53;;;5.10;99.90;;;;;;5054248;28;20060;-68
2023/04/30 02:54:21;;;;;;;19.13;8.13;;;5.20;99.90;;;;;;4994067;28;209908;-68
2023/04/30 02:56:47;;;;;;;18.27;7.72;;;5.20;99.90;;;;;;5054014;28;20056;-68
2023/04/30 02:59:13;;;;;;;21.80;8.80;;;5.20;99.90;;;;;;4971575;28;211258;-69
2023/04/30 03:01:39;;;;;;;18.60;7.72;;;5.20;99.90;;;;;;5045530;28;20052;-69
2023/04/30 03:04:05;;;;;;;14.25;7.50;;;5.20;99.90;;;;;;4995468;28;218564;-69
2023/04/30 03:06:32;;;;;;;16.92;7.82;;;5.20;99.90;;;;;;5055163;28;20057;-69
2023/04/30 03:08:58;;;;;;;16.92;7.82;;;5.20;99.90;;;;;;4993963;28;206458;-68
2023/04/30 03:11:24;;;;;;;16.08;7.80;;;5.10;99.90;;;;;;5048549;28;20510;-68
2023/04/30 03:13:51;;;;;;;17.33;8.10;;;5.10;99.90;;;;;;4996397;28;206012;-68
2023/04/30 03:16:18;;;;;;;18.50;7.88;;;5.10;99.90;;;;;;5064251;28;20059;-67
2023/04/30 03:18:48;;;;;;;18.70;8.15;;;5.00;99.90;;;;;;5004036;28;224762;-68
2023/04/30 03:21:14;;;;;;;17.33;7.78;;;5.10;99.90;;;;;;5054339;28;20049;-68
2023/04/30 03:23:41;;;;;;;17.33;7.72;;;5.10;99.90;;;;;;4994326;28;211610;-68
2023/04/30 03:26:07;;;;;;;16.25;8.13;;;5.10;99.90;;;;;;5057611;28;20049;-68
2023/04/30 03:28:34;;;;;;;16.15;8.30;;;5.10;99.90;;;;;;4998567;28;207785;-68
2023/04/30 03:31:04;;;;;;;16.65;7.40;;;5.10;99.90;;;;;;5072942;28;20056;-68
2023/04/30 03:33:38;;;;;;;15.02;7.13;;;5.10;99.90;;;;;;4997635;28;205388;-68
2023/04/30 03:36:05;;;;;;;15.65;7.75;;;5.20;99.90;;;;;;5064377;28;20055;-70
2023/04/30 03:38:31;;;;;;;16.15;7.55;;;5.20;99.90;;;;;;5018953;28;207509;-68
2023/04/30 03:40:57;;;;;;;20.10;8.02;;;5.20;99.90;;;;;;5078291;28;20043;-68
2023/04/30 03:43:23;;;;;;;17.10;8.70;;;5.30;99.90;;;;;;5016725;28;210148;-67
2023/04/30 03:45:49;;;;;;;18.25;8.93;;;5.30;99.90;;;;;;5060825;28;20048;-68
2023/04/30 03:48:15;;;;;;;15.93;8.60;;;5.30;99.90;;;;;;5009103;28;208697;-68
2023/04/30 03:50:42;;;;;;;26.33;9.77;;;5.30;99.90;;;;;;5066837;28;20668;-68
2023/04/30 03:53:08;;;;;;;16.55;9.13;;;5.30;99.90;;;;;;5045337;28;207491;-68
2023/04/30 03:55:34;;;;;;;16.55;8.13;;;5.40;99.90;;;;;;5068605;28;20045;-69
2023/04/30 03:58:00;;;;;;;16.27;8.23;;;5.40;99.90;;;;;;5079493;28;20075;-69
2023/04/30 04:00:26;;;;;;;17.77;8.80;;;5.40;99.90;;;;;;4997661;28;184670;-69
2023/04/30 04:02:53;;;;;;;17.55;9.07;;;5.40;99.90;;;;;;5079216;28;20051;-69
2023/04/30 04:05:20;;;;;;;16.23;8.15;;;5.40;99.90;;;;;;5002874;28;207795;-69
2023/04/30 04:07:46;;;;;;;21.27;8.55;;;5.50;99.90;;;;;;5087004;28;20072;-69
2023/04/30 04:10:12;;;;;;;15.23;7.82;;;5.50;99.90;;;;;;5017153;28;212394;-70
2023/04/30 04:12:38;;;;;;;17.25;8.55;;;5.50;99.90;;;;;;5076283;28;20056;-68
2023/04/30 04:15:04;;;;;;;17.48;8.65;;;5.60;99.90;;;;;;5025723;28;213884;-69
2023/04/30 04:17:31;;;;;;;16.27;7.70;;;5.60;99.90;;;;;;5081193;28;20051;-67
2023/04/30 04:19:57;;;;;;;15.27;7.13;;;5.60;99.90;;;;;;5013576;28;165160;-68
2023/04/30 04:22:23;;;;;;;18.88;7.43;;;5.60;99.90;;;;;;5078206;28;20475;-70
2023/04/30 04:24:50;;;;;;;13.82;7.18;;;5.60;99.90;;;;;;4993235;28;222366;-68
2023/04/30 04:27:16;;;;;;;16.88;7.50;;;5.70;99.90;;;;;;5078130;28;20067;-69
2023/04/30 04:29:43;;;;;;;22.73;8.45;;;5.70;99.90;;;;;;5016812;28;213306;-69
2023/04/30 04:32:11;;;;;;;19.33;8.13;;;5.70;99.90;;;;;;5079581;28;20048;-69
2023/04/30 04:34:38;;;;;;;16.10;7.80;;;5.80;99.90;;;;;;5021537;28;209981;-70
2023/04/30 04:37:04;;;;;;;19.48;7.43;;;5.80;99.90;;;;;;5084380;28;20051;-68
2023/04/30 04:39:30;;;;;;;16.23;7.63;;;5.80;99.90;;;;;;5028309;28;207628;-69
2023/04/30 04:41:57;;;;;;;22.73;8.65;;;5.80;99.90;;;;;;5079893;28;20049;-69
2023/04/30 04:44:23;;;;;;;15.00;7.40;;;5.80;99.90;;;;;;5025189;28;207445;-69
2023/04/30 04:46:52;;;;;;;18.15;8.40;;;5.80;99.90;;;;;;5078615;28;20048;-69
2023/04/30 04:49:19;;;;;;;19.58;8.40;;;5.70;99.90;;;;;;5012180;28;209006;-69
2023/04/30 04:51:45;;;;;;;17.00;9.00;;;5.70;99.90;;;;;;5071706;28;20889;-68
2023/04/30 04:54:11;;;;;;;20.08;9.10;;;5.70;99.90;;;;;;5008460;28;215401;-69
2023/04/30 04:56:38;;;;;;;14.27;7.88;;;5.80;99.90;;;;;;5074562;28;20052;-68
2023/04/30 04:59:04;;;;;;;16.85;8.63;;;5.80;99.90;;;;;;5009691;28;207677;-69
2023/04/30 05:01:30;;;;;;;16.02;7.90;;;5.90;99.90;;;;;;5074194;28;20567;-69
2023/04/30 05:03:56;;;;;;;15.30;7.63;;;6.00;99.90;;;;;;5014813;28;207961;-68
2023/04/30 05:06:22;;;;;;;17.80;8.02;;;6.10;99.90;;;;;;5071089;28;20418;-69
2023/04/30 05:08:48;;;;;;;17.15;8.27;;;6.20;99.90;;;;;;5021823;28;208122;-69
2023/04/30 05:11:15;;;;;;;16.10;8.27;;;6.30;99.90;;;;;;5080749;28;20052;-68
2023/04/30 05:13:41;;;;;;;13.55;7.28;;;6.40;99.90;;;;;;5018602;28;210478;-68
2023/04/30 05:16:07;;;;;;;14.15;6.70;;;6.60;99.90;;;;;;5082696;28;20078;-69
2023/04/30 05:18:33;;;;;;;17.20;7.32;;;6.80;99.90;;;;;;5016348;28;207529;-69
2023/04/30 05:20:59;;;;;;;16.58;6.28;;;7.10;99.90;;;;;;5067292;28;20067;-69
2023/04/30 05:23:27;;;;;;;14.40;5.78;;;7.50;99.90;;;;;;5018480;28;215420;-70
2023/04/30 05:25:54;;;;;;;19.38;5.47;;;7.70;99.90;;;;;;5063527;28;20067;-71
2023/04/30 05:28:20;;;;;;;15.47;5.40;;;7.80;99.90;;;;;;5018051;28;213729;-69
2023/04/30 05:30:46;;;;;;;17.38;5.55;;;7.90;99.90;;;;;;5031130;28;20047;-69
2023/04/30 05:33:12;;;;;;;16.23;5.28;;;8.00;99.90;;;;;;5019476;28;252975;-67
2023/04/30 05:35:38;;;;;;;17.58;5.22;;;8.30;99.90;;;;;;5063245;28;20060;-69
2023/04/30 05:38:04;;;;;;;19.42;5.07;;;8.40;99.90;;;;;;5057553;28;208217;-70
2023/04/30 05:40:31;;;;;;;15.38;4.78;;;8.60;99.90;;;;;;5004693;28;206622;-69
2023/04/30 05:42:57;;;;;;;21.65;4.40;;;8.90;99.90;;;;;;5057749;28;20044;-70
2023/04/30 05:45:23;;;;;;;15.73;4.35;;;9.30;99.90;;;;;;5006290;28;212664;-69
2023/04/30 05:47:49;;;;;;;17.02;4.40;;;9.60;99.90;;;;;;5074383;28;20678;-70
2023/04/30 05:50:15;;;;;;;12.90;4.05;;;9.90;99.90;;;;;;5003168;28;207376;-69
2023/04/30 05:52:41;;;;;;;16.38;4.65;;;10.20;99.90;;;;;;5075730;28;20052;-70
2023/04/30 05:55:08;;;;;;;16.60;4.32;;;10.50;99.90;;;;;;5002696;28;208233;-68
2023/04/30 05:57:34;;;;;;;15.35;3.75;;;10.60;99.90;;;;;;5074623;28;20408;-69
2023/04/30 06:00:00;;;;;;;15.15;4.07;;;10.80;99.90;;;;;;5006797;28;210763;-70
2023/04/30 06:02:26;;;;;;;18.35;4.43;;;11.10;99.90;;;;;;5079477;28;20075;-69
2023/04/30 06:04:53;;;;;;;13.43;3.53;;;11.40;99.90;;;;;;5005909;28;207241;-70
2023/04/30 06:07:19;;;;;;;18.30;3.88;;;11.60;99.90;;;;;;5062704;28;20051;-70
2023/04/30 06:09:45;;;;;;;15.25;3.60;;;11.70;99.90;;;;;;4983691;28;212814;-69
2023/04/30 06:12:11;;;;;;;14.45;3.50;;;11.90;99.90;;;;;;5056244;28;20055;-70
2023/04/30 06:14:37;;;;;;;16.52;3.10;;;12.10;99.90;;;;;;4993616;28;213782;-69
2023/04/30 06:17:03;;;;;;;16.40;3.33;;;11.70;99.90;;;;;;5052265;28;20053;-69
2023/04/30 06:19:29;;;;;;;15.77;3.28;;;11.40;99.90;;;;;;4986802;28;206147;-69
2023/04/30 06:21:55;;;;;;;14.45;3.17;;;11.20;99.90;;;;;;5049144;28;20511;-69
2023/04/30 06:24:21;;;;;;;16.00;3.22;;;11.40;99.90;;;;;;4986982;28;206422;-69
2023/04/30 06:26:47;;;;;;;12.95;2.60;;;11.60;99.90;;;;;;5048844;28;20056;-69
2023/04/30 06:29:13;;;;;;;12.15;3.10;;;11.40;99.90;;;;;;5000682;28;209198;-69
2023/04/30 06:31:39;;;;;;;10.95;2.83;;;11.20;99.90;;;;;;5067552;28;20056;-69
2023/04/30 06:34:06;;;;;;;15.88;3.13;;;11.10;99.90;;;;;;5019768;28;210021;-69
2023/04/30 06:36:32;;;;;;;17.05;2.92;;;10.90;99.90;;;;;;5073848;28;20438;-69
2023/04/30 06:38:58;;;;;;;13.20;2.65;;;10.80;99.90;;;;;;5017404;28;210253;-70
2023/04/30 06:41:24;;;;;;;17.50;3.20;;;10.80;99.90;;;;;;5073232;28;20067;-69
2023/04/30 06:43:50;;;;;;;19.25;2.95;;;10.80;99.90;;;;;;4994319;28;212552;-70
2023/04/30 06:46:16;;;;;;;16.23;2.83;;;10.70;99.90;;;;;;5065687;28;20496;-69
2023/04/30 06:48:42;;;;;;;16.77;2.92;;;10.70;99.90;;;;;;5009178;28;223507;-69
2023/04/30 06:51:08;;;;;;;14.98;3.10;;;10.70;99.90;;;;;;5074698;28;20067;-69
2023/04/30 06:53:35;;;;;;;15.63;2.80;;;11.10;99.90;;;;;;5015580;28;208567;-69
2023/04/30 06:56:01;;;;;;;13.68;2.92;;;11.60;99.90;;;;;;5062640;28;20524;-70
2023/04/30 06:58:27;;;;;;;14.50;2.72;;;12.00;99.90;;;;;;4988620;28;218427;-70
2023/04/30 07:00:53;;;;;;;12.95;2.50;;;12.50;99.90;;;;;;5054803;28;20056;-70
2023/04/30 07:03:20;;;;;;;15.00;2.60;;;13.20;99.90;;;;;;5009215;28;212607;-70
2023/04/30 07:05:46;;;;;;;15.20;2.45;;;13.70;99.90;;;;;;5079850;28;20032;-71
2023/04/30 07:08:13;;;;;;;12.35;2.60;;;13.80;99.90;;;;;;5024671;28;230123;-69
2023/04/30 07:10:39;;;;;;;15.02;2.25;;;13.30;99.90;;;;;;5040642;28;20506;-71
2023/04/30 07:13:07;;;;;;;14.90;3.20;;;13.10;99.90;;;;;;5045673;28;213351;-69
2023/04/30 07:15:33;;;;;;;14.23;2.75;;;12.90;99.90;;;;;;5046663;28;206519;-69
2023/04/30 07:17:59;;;;;;;14.35;2.35;;;13.30;99.90;;;;;;5071632;28;20045;-69
2023/04/30 07:20:25;;;;;;;16.58;2.83;;;13.70;99.90;;;;;;5007315;28;207033;-69
2023/04/30 07:22:53;;;;;;;13.10;2.38;;;14.00;99.90;;;;;;5053973;28;20407;-70
2023/04/30 07:25:19;;;;;;;10.45;2.03;;;14.20;99.90;;;;;;4985989;28;210191;-70
2023/04/30 07:27:45;;;;;;;14.00;2.58;;;14.30;99.90;;;;;;5051115;28;20396;-70
2023/04/30 07:30:12;;;;;;;14.70;2.58;;;14.40;99.90;;;;;;4976078;28;216255;-70
2023/04/30 07:32:39;;;;;;;13.77;2.30;;;14.60;99.90;;;;;;5081536;28;20059;-69
2023/04/30 07:35:06;;;;;;;13.60;2.10;;;14.80;99.90;;;;;;5008874;28;211994;-69
2023/04/30 07:37:32;;;;;;;12.20;2.20;;;15.10;99.90;;;;;;5077753;28;20122;-70
2023/04/30 07:39:58;;;;;;;11.15;2.58;;;15.30;99.60;;;;;;5000877;28;219049;-70
2023/04/30 07:42:24;;;;;;;10.85;2.08;;;15.60;99.90;;;;;;5073723;28;20059;-71
2023/04/30 07:44:51;;;;;;;12.93;2.10;;;15.40;99.90;;;;;;5018702;28;207833;-70
2023/04/30 07:47:18;;;;;;;13.48;2.47;;;15.80;99.90;;;;;;5070293;28;20052;-71
2023/04/30 07:49:48;;;;;;;16.42;2.58;;;16.10;98.60;;;;;;5017063;28;207921;-72
2023/04/30 07:52:14;;;;;;;12.13;2.50;;;16.10;98.60;;;;;;5071962;28;20051;-72
2023/04/30 07:54:40;;;;;;;12.77;2.38;;;16.10;99.00;;;;;;5011290;28;206923;-72
2023/04/30 07:57:06;;;;;;;9.35;2.20;;;16.30;99.10;;;;;;5078896;28;20048;-72
2023/04/30 07:59:32;;;;;;;15.60;2.50;;;16.70;99.20;;;;;;4982746;28;237584;-72
2023/04/30 08:01:58;;;;;;;14.05;2.80;;;16.90;98.70;;;;;;5066090;28;20063;-72
2023/04/30 08:04:25;;;;;;;12.77;2.45;;;17.20;99.20;;;;;;4990306;28;166736;-72
2023/04/30 08:06:51;;;;;;;13.45;2.17;;;17.60;97.60;;;;;;5055771;28;20060;-71
2023/04/30 08:09:17;;;;;;;13.23;2.50;;;17.80;97.70;;;;;;5015459;28;206281;-72
2023/04/30 08:11:43;;;;;;;11.20;2.20;;;17.70;96.50;;;;;;5079898;28;20037;-72
2023/04/30 08:14:09;;;;;;;10.68;2.00;;;17.80;97.60;;;;;;5010539;28;212138;-72
2023/04/30 08:16:35;;;;;;;9.82;2.00;;;17.60;96.60;;;;;;5069366;28;20052;-72
2023/04/30 08:19:02;;;;;;;11.70;2.40;;;17.60;96.70;;;;;;5016461;28;208143;-72
2023/04/30 08:21:29;;;;;;;11.68;2.20;;;17.80;97.10;;;;;;5072990;28;20047;-71
2023/04/30 08:23:56;;;;;;;11.85;2.45;;;17.50;95.40;;;;;;5026225;28;209716;-72
2023/04/30 08:26:22;;;;;;;12.30;2.20;;;17.30;96.00;;;;;;5078454;28;20032;-72
2023/04/30 08:28:48;;;;;;;13.45;2.33;;;17.00;95.50;;;;;;5020755;28;209566;-72
2023/04/30 08:31:14;;;;;;;11.30;2.42;;;16.80;95.50;;;;;;5079622;28;20048;-72
2023/04/30 08:33:40;;;;;;;12.73;2.28;;;16.60;95.60;;;;;;5024553;28;207832;-72
2023/04/30 08:36:06;;;;;;;11.98;2.15;;;16.70;95.90;;;;;;5059753;28;20643;-71
2023/04/30 08:38:32;;;;;;;11.35;2.58;;;16.80;95.50;;;;;;5003693;28;210656;-72
2023/04/30 08:41:10;;;;;;;12.68;2.47;;;16.60;95.70;;;;;;5042833;28;20801;-71
2023/04/30 08:43:36;;;;;;;10.40;2.15;;;16.40;95.70;;;;;;4995664;28;207953;-71
2023/04/30 08:46:05;;;;;;;10.50;2.28;;;16.20;96.00;;;;;;5060461;28;20052;-71
2023/04/30 08:48:32;;;;;;;12.60;2.60;;;16.50;96.30;;;;;;5004291;28;216676;-71
2023/04/30 08:51:03;;;;;;;13.90;2.42;;;16.70;95.80;;;;;;5061400;28;20044;-71
2023/04/30 08:53:33;;;;;;;12.70;2.55;;;16.80;95.80;;;;;;4999874;28;207255;-71
2023/04/30 08:55:59;;;;;;;12.30;2.55;;;16.60;95.30;;;;;;5080719;28;20060;-72
2023/04/30 08:58:25;;;;;;;13.90;2.50;;;16.40;95.50;;;;;;4994604;28;239020;-71
2023/04/30 09:00:51;;;;;;;12.23;2.30;;;16.90;96.00;;;;;;5081683;28;20406;-73
2023/04/30 09:03:17;;;;;;;11.40;2.60;;;17.40;95.70;;;;;;5028231;28;208429;-72
2023/04/30 09:05:43;;;;;;;11.45;2.53;;;17.90;95.60;;;;;;5087993;28;20043;-72
2023/04/30 09:08:17;;;;;;;12.45;2.70;;;18.10;95.00;;;;;;5034450;28;215242;-70
2023/04/30 09:10:43;;;;;;;11.73;2.38;;;18.50;95.20;;;;;;5040696;28;20059;-72
2023/04/30 09:13:11;;;;;;;12.27;2.60;;;19.20;95.30;;;;;;5035811;28;212983;-72
2023/04/30 09:15:44;;;;;;;12.70;2.58;;;19.50;94.60;;;;;;5058458;28;20419;-72
2023/04/30 09:18:16;;;;;;;14.50;2.60;;;19.10;93.80;;;;;;5028854;28;206880;-72
2023/04/30 09:21:00;;;;;;;11.65;2.60;;;18.60;93.90;;;;;;5094418;28;20056;-72
2023/04/30 09:23:27;;;;;;;10.45;2.33;;;18.50;93.20;;;;;;5014816;28;206901;-72
2023/04/30 09:25:53;;;;;;;10.27;2.08;;;18.30;94.00;;;;;;5044545;28;20052;-72
2023/04/30 09:28:24;;;;;;;10.60;2.50;;;18.70;94.00;;;;;;5000383;28;210617;-71
2023/04/30 09:30:51;;;;;;;10.07;2.28;;;18.60;94.10;;;;;;5077240;28;20053;-71
2023/04/30 09:33:17;;;;;;;11.07;2.20;;;18.70;93.80;;;;;;5021790;28;208514;-72
2023/04/30 09:35:43;;;;;;;13.75;2.78;;;18.60;94.10;;;;;;5056679;28;20049;-69
2023/04/30 09:38:27;;;;;;;9.63;2.20;;;18.70;94.00;;;;;;5007563;28;211311;-71
2023/04/30 09:40:54;;;;;;;9.68;2.13;;;18.50;92.40;;;;;;5070005;28;20040;-72
2023/04/30 09:43:20;;;;;;;9.25;1.98;;;18.30;93.60;;;;;;5011376;28;212771;-72
2023/04/30 09:45:50;;;;;;;10.18;2.20;;;18.00;93.00;;;;;;5073568;28;20049;-72
2023/04/30 09:48:23;;;;;;;11.18;2.47;;;17.50;93.20;;;;;;5030024;28;227033;-72
2023/04/30 09:50:50;;;;;;;12.23;2.22;;;17.70;93.60;;;;;;5068142;28;20031;-73
2023/04/30 09:53:17;;;;;;;8.80;2.00;;;18.00;93.10;;;;;;5022794;28;207486;-73
2023/04/30 09:55:45;;;;;;;11.63;2.38;;;18.00;92.30;;;;;;5076178;28;20072;-73
2023/04/30 09:58:12;;;;;;;9.32;2.20;;;17.90;93.20;;;;;;5021750;28;206984;-72
2023/04/30 10:00:39;;;;;;;9.65;2.20;;;18.10;92.50;;;;;;5063642;28;132365;-73
2023/04/30 10:03:10;;;;;;;12.23;2.80;;;18.20;92.90;;;;;;5059001;28;212272;-70
2023/04/30 10:05:43;;;;;;;11.13;2.35;;;18.80;93.00;;;;;;5050829;28;20040;-73
2023/04/30 10:08:26;;;;;;;12.70;2.58;;;19.30;93.00;;;;;;5044761;28;213353;-72
2023/04/30 10:11:02;;;;;;;11.63;2.50;;;20.70;91.20;;;;;;5072679;28;20123;-72
2023/04/30 10:13:32;;;;;;;9.90;2.40;;;20.30;91.90;;;;;;5019502;28;236024;-72
2023/04/30 10:16:03;;;;;;;10.07;2.38;;;20.60;92.30;;;;;;5079985;28;20067;-71
2023/04/30 10:18:39;;;;;;;10.15;2.33;;;21.30;91.30;;;;;;5014528;28;206918;-72
2023/04/30 10:21:10;;;;;;;11.13;2.85;;;22.00;90.90;;;;;;5091208;28;20041;-73
2023/04/30 10:23:38;;;;;;;9.27;1.98;;;22.40;90.40;;;;;;5007899;28;207944;-73
2023/04/30 10:26:05;;;;;;;11.07;2.47;;;23.00;91.00;;;;;;5059099;28;20425;-73
2023/04/30 10:28:31;;;;;;;9.07;2.10;;;23.40;90.90;;;;;;5009919;28;213012;-73
2023/04/30 10:30:58;;;;;;;10.57;2.10;;;23.60;90.70;;;;;;5055489;28;20048;-73
2023/04/30 10:33:48;;;;;;;9.88;2.15;;;24.10;91.00;;;;;;5032718;28;207610;-73
2023/04/30 10:36:29;;;;;;;9.73;2.30;;;24.60;90.20;;;;;;5089331;28;20071;-72
2023/04/30 10:38:57;;;;;;;8.60;1.80;;;24.90;90.00;;;;;;5016025;28;209166;-73
2023/04/30 10:41:26;;;;;;;8.45;2.00;;;25.20;89.60;;;;;;5057656;28;20098;-74
2023/04/30 10:43:57;;;;;;;10.05;2.33;;;25.20;88.00;;;;;;5011960;28;212054;-73
2023/04/30 10:46:23;;;;;;;7.25;2.10;;;24.20;85.60;;;;;;5077968;28;20446;-72
2023/04/30 10:48:53;;;;;;;8.57;2.05;;;24.00;85.50;;;;;;5019265;28;216351;-72
2023/04/30 10:51:20;;;;;;;6.95;1.60;;;24.10;87.80;;;;;;5069196;28;20056;-72
2023/04/30 10:53:51;;;;;;;7.75;2.08;;;24.30;87.10;;;;;;5013382;28;207085;-72
2023/04/30 10:56:31;;;;;;;9.68;2.50;;;24.90;86.60;;;;;;5073276;28;20048;-72
2023/04/30 10:59:02;;;;;;;10.45;2.28;;;24.40;83.90;;;;;;4990835;28;214996;-72
2023/04/30 11:01:29;;;;;;;6.97;1.70;;;24.60;85.70;;;;;;5062491;28;20052;-72
2023/04/30 11:04:07;;;;;;;7.70;1.80;;;25.20;85.90;;;;;;5003421;28;213133;-73
2023/04/30 11:06:54;;;;;;;8.63;2.22;;;25.60;84.50;;;;;;5061971;28;20411;-71
2023/04/30 11:09:41;;;;;;;9.48;2.25;;;25.80;81.80;;;;;;5006717;28;207942;-72
2023/04/30 11:12:12;;;;;;;8.82;2.40;;;25.00;83.90;;;;;;5070346;28;20789;-73
2023/04/30 11:14:43;;;;;;;7.88;2.13;;;25.20;84.40;;;;;;5024178;28;206695;-74
2023/04/30 11:17:11;;;;;;;9.50;2.55;;;25.20;83.80;;;;;;5072525;28;20064;-72
2023/04/30 11:19:48;;;;;;;9.40;2.13;;;24.90;81.00;;;;;;5013483;28;230993;-73
2023/04/30 11:22:15;;;;;;;9.13;2.35;;;25.00;84.00;;;;;;5082608;28;20045;-72
2023/04/30 11:25:04;;;;;;;7.78;2.30;;;24.90;83.80;;;;;;5027890;28;207303;-72
2023/04/30 11:27:32;;;;;;;7.82;2.13;;;25.70;82.40;;;;;;5075224;28;20052;-71
2023/04/30 11:29:59;;;;;;;10.23;2.33;;;25.90;82.70;;;;;;4999430;28;209095;-72
2023/04/30 11:32:33;;;;;;;8.93;2.40;;;26.10;82.10;;;;;;5073891;28;20048;-72
2023/04/30 11:35:04;;;;;;;11.02;2.40;;;25.80;80.80;;;;;;5000154;28;221628;-73
2023/04/30 11:37:36;;;;;;;8.13;2.15;;;25.30;80.60;;;;;;5072524;28;20055;-72
2023/04/30 11:40:06;;;;;;;7.80;2.30;;;24.40;79.70;;;;;;4996046;28;217169;-73
2023/04/30 11:42:36;;;;;;;9.02;2.15;;;24.80;79.70;;;;;;5059193;28;20052;-73
2023/04/30 11:45:16;;;;;;;8.90;2.30;;;25.00;80.60;;;;;;5009196;28;210279;-73
2023/04/30 11:47:49;;;;;;;8.63;2.10;;;24.90;80.80;;;;;;5055124;28;20079;-72
2023/04/30 11:50:27;;;;;;;9.88;2.13;;;24.50;80.20;;;;;;4994667;28;207231;-71
2023/04/30 11:52:55;;;;;;;9.15;2.00;;;24.00;80.20;;;;;;5053084;28;20519;-73
2023/04/30 11:55:23;;;;;;;9.07;2.25;;;24.20;81.20;;;;;;4976063;28;208200;-72
2023/04/30 11:57:52;;;;;;;10.02;2.25;;;24.10;80.40;;;;;;5056772;28;20056;-73
2023/04/30 12:00:20;;;;;;;11.32;2.58;;;24.40;81.30;;;;;;4963546;28;208369;-73
2023/04/30 12:02:48;;;;;;;8.55;2.05;;;25.00;83.10;;;;;;5054451;28;20052;-73
2023/04/30 12:05:22;;;;;;;8.02;1.95;;;25.50;81.20;;;;;;4987177;28;208513;-74
2023/04/30 12:07:50;;;;;;;9.32;2.25;;;26.00;82.40;;;;;;5053989;28;20061;-72
2023/04/30 12:10:18;;;;;;;8.63;2.50;;;26.40;80.70;;;;;;5030355;28;226190;-72
2023/04/30 12:12:46;;;;;;;8.55;2.15;;;25.70;78.60;;;;;;5077502;28;20405;-72
2023/04/30 12:15:14;;;;;;;8.30;1.80;;;25.70;79.00;;;;;;5026693;28;212880;-72
2023/04/30 12:17:41;;;;;;;8.23;2.38;;;25.30;79.60;;;;;;5074731;28;20425;-72
2023/04/30 12:20:09;;;;;;;7.32;1.85;;;25.90;79.30;;;;;;4986341;28;211687;-71
2023/04/30 12:22:36;;;;;;;9.30;2.33;;;25.80;80.20;;;;;;5080471;28;20490;-70
2023/04/30 12:25:14;;;;;;;10.38;2.22;;;26.10;80.80;;;;;;5018237;28;209937;-72
2023/04/30 12:27:41;;;;;;;7.68;2.00;;;26.20;77.80;;;;;;5075555;28;20060;-68
2023/04/30 12:30:08;;;;;;;8.63;2.00;;;26.40;79.30;;;;;;5023054;28;209672;-70
2023/04/30 12:32:43;;;;;;;7.32;1.77;;;26.30;78.50;;;;;;5075843;28;20438;-70
2023/04/30 12:35:20;;;;;;;8.15;2.03;;;26.00;77.90;;;;;;5019931;28;213247;-70
2023/04/30 12:38:01;;;;;;;8.88;1.92;;;25.60;78.70;;;;;;5074904;28;20044;-70
2023/04/30 12:40:27;;;;;;;7.50;1.90;;;24.90;75.70;;;;;;5027449;28;207365;-70
2023/04/30 12:43:03;;;;;;;6.50;1.65;;;25.10;76.70;;;;;;5074812;28;20917;-71
2023/04/30 12:45:51;;;;;;;8.05;1.95;;;25.30;76.60;;;;;;5013633;28;188592;-70